Time;durP1;ratioP1;P1;durP2;ratioP2;P2;SDS_P1;SDS_P2;PMS_P1;PMS_P2;Temp;Humidity;BMP_temperature;BMP_pressure;BME280_temperature;BME280_humidity;BME280_pressure;Samples;Min_cycle;Max_cycle;Signal;HPM_P1;HPM_P2
2023/06/21 00:01:00;;;;;;;7.57;6.80;;;22.00;86.40;;;;;;5074058;28;20455;-82
2023/06/21 00:03:27;;;;;;;7.50;6.43;;;22.00;84.60;;;;;;5063809;28;20464;-83
2023/06/21 00:05:54;;;;;;;6.97;6.10;;;21.90;92.30;;;;;;5063750;28;20651;-82
2023/06/21 00:08:21;;;;;;;8.23;6.87;;;21.90;94.40;;;;;;5060155;28;20734;-83
2023/06/21 00:10:48;;;;;;;8.00;7.20;;;21.80;98.20;;;;;;5053554;28;20452;-82
2023/06/21 00:13:15;;;;;;;7.90;6.70;;;21.70;99.90;;;;;;5061141;28;20517;-81
2023/06/21 00:15:42;;;;;;;6.87;5.97;;;21.70;99.90;;;;;;5071717;28;20466;-82
2023/06/21 00:18:10;;;;;;;5.73;5.23;;;21.60;99.90;;;;;;5062853;28;21017;-82
2023/06/21 00:20:38;;;;;;;7.13;5.27;;;21.50;99.90;;;;;;5055450;28;20455;-82
2023/06/21 00:23:07;;;;;;;6.80;4.80;;;21.60;99.90;;;;;;5055270;28;20443;-82
2023/06/21 00:25:34;;;;;;;5.30;4.80;;;21.60;99.90;;;;;;5054892;28;20483;-83
2023/06/21 00:28:01;;;;;;;7.80;5.17;;;21.60;99.90;;;;;;5055638;28;20529;-82
2023/06/21 00:30:28;;;;;;;5.37;4.83;;;21.60;99.70;;;;;;5055244;28;20486;-83
2023/06/21 00:32:55;;;;;;;5.70;5.10;;;21.50;92.10;;;;;;5049345;28;20463;-82
2023/06/21 00:35:23;;;;;;;4.80;3.90;;;21.30;77.20;;;;;;5066717;28;20471;-81
2023/06/21 00:37:50;;;;;;;5.07;4.20;;;21.40;59.20;;;;;;5064076;28;20707;-82
2023/06/21 00:40:18;;;;;;;6.60;5.07;;;21.40;54.10;;;;;;5051519;28;20455;-80
2023/06/21 00:42:45;;;;;;;4.77;4.00;;;21.40;65.80;;;;;;5061537;28;20463;-83
2023/06/21 00:45:15;;;;;;;4.60;4.07;;;21.20;71.60;;;;;;5057837;28;21127;-80
2023/06/21 00:47:42;;;;;;;5.03;4.03;;;21.20;60.80;;;;;;5058555;28;20452;-82
2023/06/21 00:50:11;;;;;;;5.00;3.90;;;21.20;57.60;;;;;;5058359;28;20462;-83
2023/06/21 00:52:40;;;;;;;5.40;4.40;;;21.10;85.70;;;;;;5058427;28;20447;-82
2023/06/21 00:55:08;;;;;;;4.20;3.80;;;21.10;85.50;;;;;;5058315;28;20487;-83
2023/06/21 00:57:35;;;;;;;5.33;3.77;;;21.00;63.10;;;;;;5058000;28;20487;-83
2023/06/21 01:00:03;;;;;;;4.70;4.20;;;21.10;58.80;;;;;;5058277;28;20454;-82
2023/06/21 01:02:31;;;;;;;4.23;3.60;;;21.10;70.90;;;;;;5058375;28;20455;-81
2023/06/21 01:04:58;;;;;;;4.80;4.17;;;21.10;64.30;;;;;;5058115;28;21071;-83
2023/06/21 01:07:37;;;;;;;5.10;3.83;;;21.10;66.20;;;;;;5058595;28;20551;-82
2023/06/21 01:10:14;;;;;;;3.60;3.30;;;21.00;59.10;;;;;;5058180;28;20528;-82
2023/06/21 01:12:56;;;;;;;4.10;3.67;;;21.00;62.80;;;;;;5058140;28;20462;-80
2023/06/21 01:15:25;;;;;;;4.37;3.67;;;20.90;70.30;;;;;;5058009;28;20478;-82
2023/06/21 01:17:54;;;;;;;4.70;3.63;;;20.90;71.00;;;;;;5053478;28;20503;-81
2023/06/21 01:20:29;;;;;;;6.73;3.50;;;20.90;73.40;;;;;;5059363;28;20474;-82
2023/06/21 01:23:09;;;;;;;4.90;3.77;;;20.90;80.40;;;;;;5058591;28;20503;-82
2023/06/21 01:26:03;;;;;;;3.90;3.20;;;20.90;57.30;;;;;;5057415;28;20977;-81
2023/06/21 01:28:41;;;;;;;5.67;4.07;;;20.90;54.00;;;;;;5058722;28;20478;-80
2023/06/21 01:31:15;;;;;;;4.13;3.73;;;20.80;58.50;;;;;;5056762;28;20514;-81
2023/06/21 01:33:43;;;;;;;4.47;3.13;;;20.80;66.50;;;;;;5057792;28;21009;-82
2023/06/21 01:36:10;;;;;;;4.33;3.37;;;20.80;65.40;;;;;;5056267;28;20482;-81
2023/06/21 01:38:37;;;;;;;6.47;4.43;;;20.80;77.40;;;;;;5058174;28;20496;-81
2023/06/21 01:41:04;;;;;;;4.47;4.03;;;20.80;84.70;;;;;;5058216;28;20456;-80
2023/06/21 01:43:32;;;;;;;3.80;3.10;;;20.80;94.80;;;;;;5057126;28;20963;-81
2023/06/21 01:46:01;;;;;;;5.00;3.87;;;20.80;92.30;;;;;;5069766;28;20477;-82
2023/06/21 01:48:30;;;;;;;5.60;4.43;;;20.80;85.00;;;;;;5066465;28;20473;-80
2023/06/21 01:50:59;;;;;;;7.00;3.80;;;20.80;87.00;;;;;;5057420;28;20456;-81
2023/06/21 01:53:26;;;;;;;4.73;3.70;;;20.80;76.10;;;;;;5066513;28;20459;-81
2023/06/21 01:55:56;;;;;;;7.10;4.67;;;20.70;90.90;;;;;;5066342;28;20475;-82
2023/06/21 01:58:23;;;;;;;4.60;4.10;;;20.70;87.70;;;;;;5072315;28;20578;-82
2023/06/21 02:00:51;;;;;;;6.00;4.00;;;20.70;85.00;;;;;;5067404;28;20459;-82
2023/06/21 02:03:19;;;;;;;5.50;3.90;;;20.70;91.80;;;;;;5065563;28;20853;-82
2023/06/21 02:05:48;;;;;;;4.03;3.63;;;20.70;72.60;;;;;;5053877;28;20494;-83
2023/06/21 02:08:16;;;;;;;4.20;3.40;;;20.70;75.30;;;;;;5071834;28;20484;-80
2023/06/21 02:10:44;;;;;;;3.83;3.43;;;20.70;71.60;;;;;;5057266;28;20459;-82
2023/06/21 02:13:12;;;;;;;3.30;3.00;;;20.70;80.20;;;;;;5057301;28;20448;-81
2023/06/21 02:15:41;;;;;;;5.70;3.53;;;20.60;78.20;;;;;;5056645;28;20480;-80
2023/06/21 02:18:08;;;;;;;4.77;3.30;;;20.60;74.00;;;;;;5061525;28;20823;-82
2023/06/21 02:20:34;;;;;;;3.80;3.20;;;20.60;87.00;;;;;;5061353;28;20440;-82
2023/06/21 02:23:03;;;;;;;5.73;3.87;;;20.60;90.60;;;;;;5050812;28;20842;-82
2023/06/21 02:25:29;;;;;;;4.87;3.60;;;20.60;91.00;;;;;;5056834;28;20970;-81
2023/06/21 02:27:56;;;;;;;4.87;4.10;;;20.50;93.20;;;;;;5057022;28;21102;-81
2023/06/21 02:30:24;;;;;;;5.40;4.40;;;20.50;90.30;;;;;;5070169;28;20459;-82
2023/06/21 02:32:51;;;;;;;5.53;3.90;;;20.50;88.60;;;;;;5059088;28;20452;-80
2023/06/21 02:35:18;;;;;;;5.07;3.93;;;20.50;92.50;;;;;;5055832;28;20468;-81
2023/06/21 02:37:47;;;;;;;6.70;4.23;;;20.50;98.20;;;;;;5059917;28;20519;-81
2023/06/21 02:40:16;;;;;;;5.70;4.53;;;20.40;99.90;;;;;;5076508;28;20486;-81
2023/06/21 02:42:42;;;;;;;5.07;4.40;;;20.40;99.90;;;;;;5072452;28;20835;-82
2023/06/21 02:45:10;;;;;;;5.03;4.13;;;20.40;99.90;;;;;;5058084;28;20482;-81
2023/06/21 02:47:37;;;;;;;6.37;5.27;;;20.40;99.90;;;;;;5059062;28;20509;-81
2023/06/21 02:50:06;;;;;;;7.50;4.10;;;20.30;99.90;;;;;;5057993;28;20440;-82
2023/06/21 02:52:32;;;;;;;5.17;4.47;;;20.40;99.90;;;;;;5056905;28;20462;-82
2023/06/21 02:54:59;;;;;;;6.53;4.53;;;20.40;99.90;;;;;;5057097;28;20555;-82
2023/06/21 02:57:27;;;;;;;6.60;5.33;;;20.30;99.90;;;;;;5057334;28;20470;-81
2023/06/21 02:59:59;;;;;;;6.67;4.83;;;20.30;99.90;;;;;;5056111;28;20484;-81
2023/06/21 03:02:32;;;;;;;5.50;4.73;;;20.20;99.90;;;;;;5056528;28;20827;-82
2023/06/21 03:04:59;;;;;;;6.67;4.70;;;20.20;99.90;;;;;;5056068;28;20488;-83
2023/06/21 03:07:27;;;;;;;5.10;4.40;;;20.30;99.90;;;;;;5055550;28;20539;-82
2023/06/21 03:09:54;;;;;;;6.20;5.00;;;20.20;99.90;;;;;;5055809;28;20444;-81
2023/06/21 03:12:20;;;;;;;5.07;4.37;;;20.20;99.90;;;;;;5056597;28;20879;-82
2023/06/21 03:14:49;;;;;;;5.73;4.93;;;20.20;99.90;;;;;;5055707;28;20582;-81
2023/06/21 03:17:15;;;;;;;6.83;5.20;;;20.30;99.90;;;;;;5056229;28;20456;-81
2023/06/21 03:19:42;;;;;;;5.30;4.80;;;20.30;99.90;;;;;;5056303;28;20484;-83
2023/06/21 03:22:09;;;;;;;9.50;5.37;;;20.30;99.90;;;;;;5055843;28;21028;-82
2023/06/21 03:24:36;;;;;;;6.47;4.40;;;20.20;99.90;;;;;;5056100;28;20511;-83
2023/06/21 03:27:03;;;;;;;7.30;5.23;;;20.30;99.90;;;;;;5055698;28;20534;-82
2023/06/21 03:29:30;;;;;;;4.90;4.40;;;20.20;99.90;;;;;;5062776;28;20962;-82
2023/06/21 03:31:58;;;;;;;6.47;4.80;;;20.20;99.90;;;;;;5068872;28;20520;-82
2023/06/21 03:34:25;;;;;;;5.67;4.20;;;20.20;99.90;;;;;;5071129;28;20563;-82
2023/06/21 03:36:54;;;;;;;5.87;4.63;;;20.20;99.90;;;;;;5056152;28;20845;-82
2023/06/21 03:39:21;;;;;;;7.20;4.90;;;20.10;99.90;;;;;;5056488;28;20487;-82
2023/06/21 03:41:48;;;;;;;5.77;4.53;;;20.10;99.90;;;;;;5057016;28;20451;-81
2023/06/21 03:44:15;;;;;;;7.60;4.20;;;20.10;99.90;;;;;;5055785;28;20482;-82
2023/06/21 03:46:42;;;;;;;5.70;4.67;;;20.20;99.90;;;;;;5056215;28;20944;-82
2023/06/21 03:49:10;;;;;;;6.53;4.87;;;20.20;99.90;;;;;;5057082;28;20447;-82
2023/06/21 03:51:37;;;;;;;5.90;4.70;;;20.20;99.90;;;;;;5056220;28;20798;-82
2023/06/21 03:54:04;;;;;;;5.50;4.33;;;20.10;99.90;;;;;;5056685;28;20530;-82
2023/06/21 03:56:32;;;;;;;6.30;5.07;;;20.20;99.90;;;;;;5055824;28;20448;-82
2023/06/21 03:58:59;;;;;;;5.00;4.50;;;20.20;99.90;;;;;;5056008;28;20489;-82
2023/06/21 04:01:26;;;;;;;6.97;5.13;;;20.20;99.90;;;;;;5056109;28;20551;-82
2023/06/21 04:03:53;;;;;;;5.37;4.83;;;20.20;99.90;;;;;;5057040;28;20452;-81
2023/06/21 04:06:21;;;;;;;5.83;4.20;;;20.20;99.90;;;;;;5055117;28;20447;-81
2023/06/21 04:08:48;;;;;;;5.70;5.20;;;20.30;99.90;;;;;;5054785;28;20447;-81
2023/06/21 04:11:15;;;;;;;5.20;4.47;;;20.30;99.90;;;;;;5049943;28;20455;-80
2023/06/21 04:13:42;;;;;;;6.87;5.30;;;20.30;99.90;;;;;;5066550;28;20458;-80
2023/06/21 04:16:08;;;;;;;5.47;4.97;;;20.30;99.90;;;;;;5051922;28;20482;-82
2023/06/21 04:18:35;;;;;;;8.83;5.23;;;20.40;99.90;;;;;;5054170;28;20448;-82
2023/06/21 04:21:02;;;;;;;6.67;5.40;;;20.30;99.90;;;;;;5067089;28;20537;-80
2023/06/21 04:23:30;;;;;;;5.30;4.80;;;20.40;99.90;;;;;;5071285;28;20446;-80
2023/06/21 04:25:57;;;;;;;6.77;5.10;;;20.50;99.90;;;;;;5061973;28;20554;-81
2023/06/21 04:28:25;;;;;;;5.13;4.63;;;20.50;99.90;;;;;;5057938;28;20456;-81
2023/06/21 04:30:52;;;;;;;5.47;4.97;;;20.60;99.90;;;;;;5057913;28;20516;-81
2023/06/21 04:33:19;;;;;;;5.53;4.47;;;20.70;99.90;;;;;;5076016;28;20557;-82
2023/06/21 04:35:46;;;;;;;5.90;4.73;;;20.70;99.90;;;;;;5063918;28;20470;-82
2023/06/21 04:38:13;;;;;;;5.73;5.07;;;20.80;99.90;;;;;;5064703;28;20534;-82
2023/06/21 04:40:41;;;;;;;6.13;4.33;;;20.80;95.20;;;;;;5075815;28;20903;-81
2023/06/21 04:43:09;;;;;;;5.60;4.60;;;20.90;93.40;;;;;;5077856;28;20590;-82
2023/06/21 04:45:35;;;;;;;5.30;4.60;;;20.90;90.30;;;;;;5059910;28;20558;-82
2023/06/21 04:48:04;;;;;;;7.33;5.60;;;21.00;90.60;;;;;;5060023;28;20525;-82
2023/06/21 04:50:31;;;;;;;6.80;4.80;;;20.90;67.80;;;;;;5062103;28;20820;-83
2023/06/21 04:53:01;;;;;;;7.60;5.07;;;21.00;82.70;;;;;;5061172;28;20970;-82
2023/06/21 04:55:28;;;;;;;7.60;4.90;;;21.10;57.60;;;;;;5052089;28;20550;-82
2023/06/21 04:57:58;;;;;;;7.30;5.00;;;21.20;50.30;;;;;;5066088;28;20462;-82
2023/06/21 05:00:25;;;;;;;8.33;5.33;;;21.20;47.90;;;;;;5073563;28;20574;-83
2023/06/21 05:02:52;;;;;;;10.80;5.27;;;21.20;39.90;;;;;;5062116;28;20440;-82
2023/06/21 05:05:19;;;;;;;4.97;4.30;;;21.20;49.10;;;;;;5064095;28;21623;-82
2023/06/21 05:07:46;;;;;;;6.43;5.57;;;21.30;35.00;;;;;;5055299;28;20527;-84
2023/06/21 05:10:12;;;;;;;6.10;4.80;;;21.30;36.70;;;;;;5060847;28;20476;-82
2023/06/21 05:12:39;;;;;;;6.43;5.07;;;21.30;42.50;;;;;;5064009;28;20460;-81
2023/06/21 05:15:08;;;;;;;6.63;5.10;;;21.40;28.70;;;;;;5054576;28;20651;-79
2023/06/21 05:17:35;;;;;;;6.30;5.70;;;21.40;26.80;;;;;;5052597;28;20462;-81
2023/06/21 05:20:03;;;;;;;6.13;5.27;;;21.40;32.30;;;;;;5066263;28;21000;-81
2023/06/21 05:22:30;;;;;;;6.50;5.20;;;21.50;27.10;;;;;;5056044;28;20459;-81
2023/06/21 05:24:57;;;;;;;9.77;5.90;;;21.60;42.70;;;;;;5048560;28;20555;-82
2023/06/21 05:27:24;;;;;;;6.27;5.00;;;21.60;31.00;;;;;;5050819;28;20559;-79
2023/06/21 05:29:51;;;;;;;6.00;5.40;;;21.70;25.50;;;;;;5033704;28;20450;-82
2023/06/21 05:32:20;;;;;;;6.93;5.60;;;21.70;22.00;;;;;;5041309;28;20473;-80
2023/06/21 05:34:47;;;;;;;8.27;6.80;;;21.80;20.40;;;;;;5043124;28;20509;-81
2023/06/21 05:37:14;;;;;;;8.13;5.43;;;21.90;1.00;;;;;;5047748;28;20461;-82
2023/06/21 05:39:40;;;;;;;7.43;6.00;;;21.90;1.00;;;;;;5045250;28;20473;-81
2023/06/21 05:42:08;;;;;;;6.47;5.07;;;21.90;1.00;;;;;;5050546;28;20509;-82
2023/06/21 05:44:34;;;;;;;5.73;5.10;;;22.00;1.00;;;;;;5052127;28;20478;-81
2023/06/21 05:47:01;;;;;;;7.27;6.50;;;22.10;14.10;;;;;;5047486;28;20457;-82
2023/06/21 05:49:30;;;;;;;11.33;6.40;;;22.10;1.00;;;;;;5048901;28;20544;-81
2023/06/21 05:52:00;;;;;;;6.30;5.70;;;22.10;1.00;;;;;;5055384;28;20448;-83
2023/06/21 05:54:27;;;;;;;8.53;7.50;;;22.20;1.00;;;;;;5056293;28;20472;-82
2023/06/21 05:56:55;;;;;;;7.90;6.53;;;22.10;1.00;;;;;;5056258;28;20528;-83
2023/06/21 05:59:22;;;;;;;6.30;5.70;;;22.20;1.00;;;;;;5050595;28;20970;-80
2023/06/21 06:01:48;;;;;;;5.93;5.43;;;22.20;1.00;;;;;;5046660;28;20463;-83
2023/06/21 06:04:18;;;;;;;6.10;5.40;;;22.30;1.00;;;;;;5048361;28;20504;-85
2023/06/21 06:06:49;;;;;;;8.00;5.60;;;22.20;1.00;;;;;;5050920;28;20452;-84
2023/06/21 06:09:16;;;;;;;6.60;5.90;;;22.30;1.00;;;;;;5054784;28;20984;-80
2023/06/21 06:11:43;;;;;;;6.73;6.03;;;22.30;1.00;;;;;;5053591;28;20464;-83
2023/06/21 06:14:11;;;;;;;8.00;6.53;;;22.40;1.00;;;;;;5055628;28;20527;-83
2023/06/21 06:16:39;;;;;;;6.70;6.10;;;22.40;1.00;;;;;;5049203;28;20460;-84
2023/06/21 06:19:06;;;;;;;8.05;6.60;;;22.50;1.00;;;;;;5048908;28;20460;-84
2023/06/21 06:21:33;;;;;;;7.60;6.80;;;22.60;1.00;;;;;;5052477;28;20466;-82
2023/06/21 06:24:01;;;;;;;7.30;6.50;;;22.60;1.00;;;;;;5052759;28;20860;-83
2023/06/21 06:26:28;;;;;;;10.07;7.27;;;22.60;1.00;;;;;;5059161;28;20538;-82
2023/06/21 06:28:55;;;;;;;7.63;6.73;;;22.60;1.00;;;;;;5056350;28;20749;-84
2023/06/21 06:31:23;;;;;;;8.50;6.47;;;22.70;1.00;;;;;;5060342;28;20452;-85
2023/06/21 06:33:51;;;;;;;9.60;7.10;;;22.70;1.00;;;;;;5051360;28;20444;-83
2023/06/21 06:36:18;;;;;;;6.57;5.70;;;22.70;1.00;;;;;;5049047;28;20833;-83
2023/06/21 06:38:46;;;;;;;7.30;6.47;;;22.80;1.00;;;;;;5056469;28;20815;-84
2023/06/21 06:41:15;;;;;;;7.93;7.07;;;22.80;1.00;;;;;;5054627;28;20484;-83
2023/06/21 06:43:41;;;;;;;7.53;6.17;;;22.80;1.00;;;;;;5055241;28;20452;-83
2023/06/21 06:46:08;;;;;;;15.27;7.87;;;23.00;1.00;;;;;;5063084;28;20467;-85
2023/06/21 06:48:35;;;;;;;7.90;7.10;;;23.00;1.00;;;;;;5057829;28;20478;-83
2023/06/21 06:51:02;;;;;;;12.10;6.00;;;23.10;1.00;;;;;;5062708;28;20445;-84
2023/06/21 06:53:29;;;;;;;7.43;6.70;;;23.20;1.00;;;;;;5059810;28;20488;-84
2023/06/21 06:55:58;;;;;;;11.50;7.63;;;23.20;1.00;;;;;;5059160;28;20488;-83
2023/06/21 06:58:28;;;;;;;7.00;6.30;;;23.30;1.00;;;;;;5058253;28;20452;-82
2023/06/21 07:00:55;;;;;;;8.30;6.63;;;23.20;1.00;;;;;;5061402;28;20484;-83
2023/06/21 07:03:22;;;;;;;8.30;7.40;;;23.20;1.00;;;;;;5057360;28;20501;-86
2023/06/21 07:05:49;;;;;;;8.10;6.90;;;23.20;1.00;;;;;;5062299;28;20513;-81
2023/06/21 07:08:17;;;;;;;8.03;7.23;;;23.10;1.00;;;;;;5062654;28;20438;-82
2023/06/21 07:10:44;;;;;;;7.30;6.47;;;23.20;1.00;;;;;;5062138;28;20444;-86
2023/06/21 07:13:13;;;;;;;6.83;6.10;;;23.20;1.00;;;;;;5059805;28;20475;-81
2023/06/21 07:15:41;;;;;;;9.13;6.90;;;23.20;1.00;;;;;;5057785;28;20544;-85
2023/06/21 07:18:08;;;;;;;7.50;6.80;;;23.10;1.00;;;;;;5055751;28;20447;-86
2023/06/21 07:20:35;;;;;;;9.23;7.40;;;23.20;1.00;;;;;;5057302;28;20559;-84
2023/06/21 07:23:02;;;;;;;8.27;7.20;;;23.30;1.00;;;;;;5053255;28;20880;-84
2023/06/21 07:25:29;;;;;;;8.03;7.23;;;23.30;1.00;;;;;;5057525;28;20563;-84
2023/06/21 07:27:56;;;;;;;7.60;6.80;;;23.40;1.00;;;;;;5055469;28;20456;-84
2023/06/21 07:30:23;;;;;;;7.50;6.70;;;23.50;99.90;;;;;;5052150;28;21095;-86
2023/06/21 07:32:52;;;;;;;8.23;6.57;;;23.50;99.90;;;;;;5054552;28;20460;-85
2023/06/21 07:35:19;;;;;;;8.47;6.30;;;23.50;99.90;;;;;;5054019;28;20555;-83
2023/06/21 07:37:46;;;;;;;8.30;6.63;;;23.60;99.90;;;;;;5052855;28;20467;-85
2023/06/21 07:40:14;;;;;;;6.77;6.17;;;23.60;99.90;;;;;;5050336;28;20496;-82
2023/06/21 07:42:41;;;;;;;7.40;6.70;;;23.60;99.90;;;;;;5043083;28;20490;-83
2023/06/21 07:45:09;;;;;;;6.43;5.83;;;23.70;99.90;;;;;;5047352;28;20554;-86
2023/06/21 07:47:36;;;;;;;7.20;6.60;;;23.80;99.90;;;;;;5052326;28;20479;-84
2023/06/21 07:50:05;;;;;;;8.10;6.83;;;23.90;74.80;;;;;;5040446;28;20527;-85
2023/06/21 07:52:32;;;;;;;7.43;6.60;;;24.00;81.70;;;;;;5056505;28;20511;-85
2023/06/21 07:54:59;;;;;;;10.17;7.10;;;24.10;1.00;;;;;;5063493;28;20570;-85
2023/06/21 07:57:26;;;;;;;8.23;7.07;;;24.30;1.00;;;;;;5074159;28;20498;-83
2023/06/21 07:59:53;;;;;;;6.80;6.20;;;24.50;1.00;;;;;;5069281;28;20523;-82
2023/06/21 08:02:20;;;;;;;9.07;7.60;;;24.60;1.00;;;;;;5075079;28;20636;-82
2023/06/21 08:04:47;;;;;;;8.20;6.70;;;24.70;96.60;;;;;;5072310;28;20550;-83
2023/06/21 08:07:15;;;;;;;7.43;6.67;;;24.80;1.00;;;;;;5054507;28;20490;-84
2023/06/21 08:09:42;;;;;;;7.70;6.17;;;25.00;99.90;;;;;;5052859;28;20456;-85
2023/06/21 08:12:09;;;;;;;6.80;5.50;;;25.10;99.90;;;;;;5074789;28;20495;-84
2023/06/21 08:14:36;;;;;;;7.43;5.90;;;25.00;99.90;;;;;;5073530;28;20471;-84
2023/06/21 08:17:03;;;;;;;6.80;6.10;;;25.00;1.00;;;;;;5069174;28;20508;-84
2023/06/21 08:19:30;;;;;;;7.03;5.53;;;24.90;99.90;;;;;;5070001;28;20508;-86
2023/06/21 08:21:57;;;;;;;7.77;6.30;;;24.70;99.90;;;;;;5055777;28;20519;-86
2023/06/21 08:24:27;;;;;;;7.97;5.87;;;24.60;99.90;;;;;;5055431;28;20512;-84
2023/06/21 08:26:54;;;;;;;9.63;7.20;;;24.60;99.90;;;;;;5054449;28;20444;-84
2023/06/21 08:29:21;;;;;;;8.60;7.20;;;24.30;84.20;;;;;;5055574;28;20824;-84
2023/06/21 08:31:48;;;;;;;8.53;7.23;;;24.20;1.00;;;;;;5072248;28;20432;-84
2023/06/21 08:34:15;;;;;;;11.63;8.03;;;24.20;1.00;;;;;;5077161;28;20463;-84
2023/06/21 08:36:43;;;;;;;10.27;7.37;;;24.30;1.00;;;;;;5075513;28;20447;-84
2023/06/21 08:39:10;;;;;;;7.10;6.33;;;24.50;1.00;;;;;;5078197;28;20448;-84
2023/06/21 08:41:40;;;;;;;6.10;5.50;;;24.70;1.00;;;;;;5067396;28;20480;-84
2023/06/21 08:44:07;;;;;;;7.37;6.67;;;24.90;1.00;;;;;;5058713;28;20661;-83
2023/06/21 08:46:36;;;;;;;6.43;5.87;;;25.10;99.90;;;;;;5075032;28;20444;-83
2023/06/21 08:49:06;;;;;;;7.97;7.17;;;25.30;99.90;;;;;;5078051;28;20722;-82
2023/06/21 08:51:35;;;;;;;6.70;6.10;;;25.50;1.00;;;;;;5078188;28;20474;-83
2023/06/21 08:54:07;;;;;;;9.33;5.43;;;25.70;99.90;;;;;;5077838;28;20962;-84
2023/06/21 08:56:44;;;;;;;7.67;6.70;;;25.80;99.90;;;;;;5078053;28;20482;-83
2023/06/21 08:59:20;;;;;;;6.70;5.77;;;25.80;99.90;;;;;;5078546;28;20427;-84
2023/06/21 09:01:57;;;;;;;7.53;6.47;;;25.80;1.00;;;;;;5077292;28;20475;-83
2023/06/21 09:04:26;;;;;;;6.83;5.63;;;25.80;1.00;;;;;;5072655;28;20472;-84
2023/06/21 09:06:56;;;;;;;6.70;5.37;;;25.70;87.80;;;;;;5066589;28;20530;-85
2023/06/21 09:09:24;;;;;;;5.80;4.97;;;25.60;1.00;;;;;;5069573;28;20487;-84
2023/06/21 09:11:55;;;;;;;6.17;5.57;;;25.50;99.90;;;;;;5073250;28;20444;-83
2023/06/21 09:14:31;;;;;;;6.37;5.77;;;25.40;99.90;;;;;;5074069;28;20497;-83
2023/06/21 09:17:00;;;;;;;8.43;6.47;;;25.40;99.90;;;;;;5071473;28;20456;-85
2023/06/21 09:19:27;;;;;;;9.80;7.13;;;25.50;1.00;;;;;;5084085;28;20515;-83
2023/06/21 09:21:56;;;;;;;15.63;7.90;;;25.50;1.00;;;;;;5082704;28;20485;-85
2023/06/21 09:24:23;;;;;;;9.83;7.20;;;25.50;1.00;;;;;;5064433;28;20452;-84
2023/06/21 09:26:50;;;;;;;8.03;6.60;;;25.50;99.90;;;;;;5072279;28;20483;-83
2023/06/21 09:29:18;;;;;;;6.47;5.87;;;25.50;99.90;;;;;;5072249;28;20440;-83
2023/06/21 09:31:45;;;;;;;6.83;5.90;;;25.50;38.10;;;;;;5071844;28;20507;-84
2023/06/21 09:34:12;;;;;;;6.20;5.70;;;25.60;99.90;;;;;;5072200;28;20468;-84
2023/06/21 09:36:41;;;;;;;7.00;5.57;;;25.60;99.90;;;;;;5070819;28;20519;-83
2023/06/21 09:39:09;;;;;;;6.90;6.17;;;25.50;99.90;;;;;;5072786;28;20444;-84
2023/06/21 09:41:35;;;;;;;8.63;7.73;;;25.40;99.90;;;;;;5071802;28;20582;-82
2023/06/21 09:44:03;;;;;;;7.40;6.27;;;25.30;99.90;;;;;;5070680;28;20963;-84
2023/06/21 09:46:31;;;;;;;7.17;6.47;;;25.20;1.00;;;;;;5070187;28;20447;-83
2023/06/21 09:49:08;;;;;;;8.07;7.27;;;25.20;1.00;;;;;;5068306;28;20480;-83
2023/06/21 09:51:35;;;;;;;7.63;6.10;;;25.10;99.90;;;;;;5067649;28;20446;-84
2023/06/21 09:54:07;;;;;;;14.70;8.17;;;25.10;99.90;;;;;;5066484;28;20456;-85
2023/06/21 09:56:36;;;;;;;11.60;6.90;;;25.00;1.00;;;;;;5052302;28;20524;-83
2023/06/21 09:59:03;;;;;;;8.17;6.10;;;25.00;99.90;;;;;;5060886;28;20490;-83
2023/06/21 10:01:44;;;;;;;6.97;5.70;;;24.90;99.90;;;;;;5068397;28;20475;-84
2023/06/21 10:04:15;;;;;;;6.73;5.77;;;25.00;99.90;;;;;;5049546;28;20508;-83
2023/06/21 10:06:50;;;;;;;5.90;4.83;;;25.30;1.00;;;;;;5063946;28;20559;-83
2023/06/21 10:09:17;;;;;;;7.23;5.50;;;25.60;99.90;;;;;;5064524;28;20451;-82
2023/06/21 10:11:44;;;;;;;7.60;6.13;;;26.10;99.90;;;;;;5069679;28;20448;-85
2023/06/21 10:14:19;;;;;;;6.33;5.70;;;26.60;99.90;;;;;;5068796;28;20539;-84
2023/06/21 10:17:00;;;;;;;5.73;5.23;;;26.90;1.00;;;;;;5067294;28;20439;-84
2023/06/21 10:19:29;;;;;;;6.73;5.97;;;26.90;99.90;;;;;;5069994;28;20523;-81
2023/06/21 10:22:01;;;;;;;6.13;5.30;;;26.90;99.90;;;;;;5068570;28;20459;-80
2023/06/21 10:24:36;;;;;;;5.50;4.60;;;27.00;1.00;;;;;;5071038;28;20467;-83
2023/06/21 10:27:05;;;;;;;5.67;5.10;;;27.40;99.90;;;;;;5055727;28;20458;-83
2023/06/21 10:29:33;;;;;;;6.00;5.40;;;27.90;99.90;;;;;;5072177;28;20534;-83
2023/06/21 10:32:04;;;;;;;6.53;5.77;;;28.20;1.00;;;;;;5075282;28;20546;-82
2023/06/21 10:34:39;;;;;;;5.90;5.30;;;28.50;1.00;;;;;;5060604;28;20475;-82
2023/06/21 10:37:15;;;;;;;5.33;4.80;;;28.80;1.00;;;;;;5059227;28;20538;-84
2023/06/21 10:39:42;;;;;;;7.60;5.37;;;29.30;1.00;;;;;;5077544;28;20526;-83
2023/06/21 10:42:10;;;;;;;7.23;5.60;;;29.60;1.00;;;;;;5050539;28;20515;-83
2023/06/21 10:44:40;;;;;;;7.67;6.40;;;29.50;1.00;;;;;;5053511;28;20504;-83
2023/06/21 10:47:08;;;;;;;5.80;5.20;;;29.40;1.00;;;;;;5061092;28;20451;-84
2023/06/21 10:49:42;;;;;;;9.37;5.63;;;29.50;1.00;;;;;;5059425;28;20967;-84
2023/06/21 10:52:10;;;;;;;8.27;4.90;;;29.70;1.00;;;;;;5064671;28;20442;-84
2023/06/21 10:54:39;;;;;;;6.60;6.00;;;30.10;1.00;;;;;;5054170;28;20488;-84
2023/06/21 10:57:08;;;;;;;6.60;5.37;;;29.90;1.00;;;;;;5061626;28;20634;-85
2023/06/21 10:59:36;;;;;;;6.73;5.33;;;29.50;1.00;;;;;;5061206;28;20461;-85
2023/06/21 11:02:03;;;;;;;6.43;5.93;;;29.10;1.00;;;;;;5064108;28;20510;-84
2023/06/21 11:07:02;;;;;;;6.70;5.10;;;28.30;1.00;;;;;;5105869;22;21070;-83
2023/06/21 11:09:29;;;;;;;7.27;5.80;;;28.20;1.00;;;;;;5061812;28;20446;-84
2023/06/21 11:11:55;;;;;;;5.50;4.63;;;28.20;1.00;;;;;;5062716;28;20452;-84
2023/06/21 11:14:27;;;;;;;6.40;4.50;;;28.40;1.00;;;;;;5058324;28;20452;-85
2023/06/21 11:17:06;;;;;;;6.57;5.60;;;28.20;1.00;;;;;;5060442;28;20535;-83
2023/06/21 11:19:33;;;;;;;5.93;5.13;;;28.00;1.00;;;;;;5062730;28;20443;-84
2023/06/21 11:22:16;;;;;;;6.77;5.30;;;27.90;1.00;;;;;;5060474;28;20550;-85
2023/06/21 11:24:51;;;;;;;5.87;5.00;;;28.60;1.00;;;;;;5060229;28;20535;-83
2023/06/21 11:27:18;;;;;;;6.43;5.33;;;29.10;1.00;;;;;;5058834;28;20455;-83
2023/06/21 11:29:59;;;;;;;5.73;5.13;;;29.60;1.00;;;;;;5059585;28;20448;-81
2023/06/21 11:32:29;;;;;;;5.50;4.70;;;30.10;1.00;;;;;;5060642;28;20456;-82
2023/06/21 11:34:57;;;;;;;5.70;5.17;;;30.40;99.90;;;;;;5052516;28;20484;-84
2023/06/21 11:37:35;;;;;;;4.40;4.00;;;30.90;99.90;;;;;;5057501;28;20479;-83
2023/06/21 11:40:04;;;;;;;7.33;5.63;;;31.40;99.90;;;;;;5058404;28;20447;-82
2023/06/21 11:42:35;;;;;;;5.63;4.90;;;31.70;99.90;;;;;;5058431;28;20484;-83
2023/06/21 11:45:23;;;;;;;5.37;4.57;;;32.10;99.90;;;;;;5057355;28;20467;-85
2023/06/21 11:48:10;;;;;;;5.07;4.57;;;31.70;99.90;;;;;;5057815;28;20576;-84
2023/06/21 11:50:38;;;;;;;4.80;4.23;;;31.70;99.90;;;;;;5038505;28;20460;-80
2023/06/21 11:53:18;;;;;;;4.60;4.10;;;31.60;99.90;;;;;;5057718;28;20459;-83
2023/06/21 11:55:45;;;;;;;4.77;3.70;;;31.10;99.90;;;;;;5058089;28;21014;-83
2023/06/21 11:58:12;;;;;;;6.00;5.07;;;31.00;99.90;;;;;;5058959;28;20948;-83
2023/06/21 12:00:39;;;;;;;5.50;4.60;;;31.10;99.90;;;;;;5058876;28;20995;-83
2023/06/21 12:03:07;;;;;;;5.13;4.47;;;31.30;99.90;;;;;;5059128;28;20491;-84
2023/06/21 12:05:51;;;;;;;4.47;3.80;;;31.40;99.90;;;;;;5058176;28;20490;-81
2023/06/21 12:08:21;;;;;;;8.07;4.07;;;31.70;99.90;;;;;;5038882;28;20452;-84
2023/06/21 12:10:49;;;;;;;4.30;3.90;;;32.00;99.90;;;;;;5051803;28;20458;-82
2023/06/21 12:13:18;;;;;;;5.37;3.63;;;31.80;99.90;;;;;;5059070;28;20448;-82
2023/06/21 12:15:51;;;;;;;4.37;3.37;;;31.10;99.90;;;;;;5058762;28;20507;-84
2023/06/21 12:18:18;;;;;;;5.83;3.73;;;31.00;99.90;;;;;;5058496;28;20455;-82
2023/06/21 12:20:45;;;;;;;4.47;3.57;;;31.20;99.90;;;;;;5057179;28;20456;-85
2023/06/21 12:23:12;;;;;;;7.63;4.80;;;31.40;99.90;;;;;;5057342;28;20484;-83
2023/06/21 12:25:44;;;;;;;4.83;3.47;;;31.60;99.90;;;;;;5057365;28;21054;-82
2023/06/21 12:28:13;;;;;;;4.10;3.20;;;31.90;99.90;;;;;;5040999;28;20458;-83
2023/06/21 12:30:54;;;;;;;4.67;3.47;;;31.70;99.90;;;;;;5057406;28;20672;-83
2023/06/21 12:33:26;;;;;;;4.93;4.43;;;31.80;99.90;;;;;;5058445;28;20444;-81
2023/06/21 12:35:53;;;;;;;4.43;4.03;;;31.70;99.90;;;;;;5057568;28;20483;-82
2023/06/21 12:38:21;;;;;;;5.73;4.13;;;31.60;99.90;;;;;;5060253;28;20585;-83
2023/06/21 12:40:58;;;;;;;4.10;3.70;;;31.30;99.90;;;;;;5061926;28;20502;-82
2023/06/21 12:43:34;;;;;;;4.33;3.70;;;31.20;99.90;;;;;;5060680;28;20479;-81
2023/06/21 12:46:03;;;;;;;5.00;4.53;;;31.10;99.90;;;;;;5061656;28;20482;-83
2023/06/21 12:48:30;;;;;;;5.60;3.80;;;31.00;99.90;;;;;;5061867;28;20462;-83
2023/06/21 12:50:57;;;;;;;5.37;4.10;;;31.10;99.90;;;;;;5071481;28;20483;-82
2023/06/21 12:53:24;;;;;;;4.23;3.50;;;31.20;99.90;;;;;;5068455;28;20546;-83
2023/06/21 12:55:51;;;;;;;4.90;3.77;;;31.30;99.90;;;;;;5061734;28;20471;-83
2023/06/21 12:58:20;;;;;;;6.03;4.40;;;30.60;99.90;;;;;;5062593;28;20547;-83
2023/06/21 13:00:47;;;;;;;4.20;3.80;;;31.00;99.90;;;;;;5060903;28;20479;-83